createdAt,value
2022-08-27T00:01:18.814Z,89.78
2022-08-27T00:04:08.312Z,89.30
2022-08-27T00:06:57.036Z,89.67
2022-08-27T00:09:46.306Z,89.70
2022-08-27T00:12:35.636Z,89.60
2022-08-27T00:15:24.302Z,90.18
2022-08-27T00:18:12.636Z,90.23
2022-08-27T00:21:02.894Z,90.49
2022-08-27T00:23:53.547Z,90.55
2022-08-27T00:26:43.469Z,90.42
2022-08-27T00:29:31.663Z,90.58
2022-08-27T00:32:19.925Z,91.01
2022-08-27T00:35:09.057Z,91.40
2022-08-27T00:37:58.496Z,91.02
2022-08-27T00:40:49.099Z,90.89
2022-08-27T00:43:51.346Z,90.52
2022-08-27T00:46:50.080Z,90.79
2022-08-27T00:49:51.350Z,91.32
2022-08-27T00:52:53.214Z,91.44
2022-08-27T00:55:49.808Z,91.96
2022-08-27T00:58:51.874Z,91.95
2022-08-27T01:01:59.865Z,91.84
2022-08-27T01:04:55.478Z,91.58
2022-08-27T01:07:50.450Z,90.89
2022-08-27T01:10:44.391Z,90.52
2022-08-27T01:13:59.349Z,89.97
2022-08-27T01:16:54.422Z,90.09
2022-08-27T01:20:02.274Z,89.87
2022-08-27T01:23:23.792Z,89.77
2022-08-27T01:26:17.494Z,89.39
2022-08-27T01:29:09.249Z,89.59
2022-08-27T01:32:12.445Z,90.15
2022-08-27T01:35:07.944Z,90.35
2022-08-27T01:37:57.485Z,90.64
2022-08-27T01:40:46.805Z,90.79
2022-08-27T01:43:38.231Z,90.87
2022-08-27T01:46:28.912Z,90.60
2022-08-27T01:49:20.721Z,90.87
2022-08-27T01:52:08.871Z,90.99
2022-08-27T01:54:57.577Z,91.45
2022-08-27T01:57:46.302Z,91.51
2022-08-27T02:00:39.465Z,91.32
2022-08-27T02:03:29.205Z,91.14
2022-08-27T02:06:18.072Z,91.20
2022-08-27T02:09:07.166Z,91.05
2022-08-27T02:11:55.200Z,90.93
2022-08-27T02:14:43.227Z,91.30
2022-08-27T02:17:31.372Z,91.40
2022-08-27T02:20:22.267Z,91.21
2022-08-27T02:23:10.356Z,91.29
2022-08-27T02:25:58.457Z,91.57
2022-08-27T02:28:48.661Z,91.44
2022-08-27T02:31:37.117Z,91.50
2022-08-27T02:34:25.065Z,91.71
2022-08-27T02:37:14.564Z,91.54
2022-08-27T02:40:04.058Z,91.54
2022-08-27T02:42:52.112Z,91.59
2022-08-27T02:45:40.177Z,91.63
2022-08-27T02:48:28.468Z,91.75
2022-08-27T02:51:18.814Z,91.52
2022-08-27T02:54:09.548Z,91.33
2022-08-27T02:56:59.088Z,91.20
2022-08-27T02:59:48.421Z,91.50
2022-08-27T03:02:39.049Z,91.60
2022-08-27T03:05:28.686Z,91.57
2022-08-27T03:08:18.199Z,91.72
2022-08-27T03:11:08.376Z,91.54
2022-08-27T03:13:59.096Z,91.80
2022-08-27T03:16:51.413Z,91.41
2022-08-27T03:19:39.418Z,91.73
2022-08-27T03:22:27.498Z,91.88
2022-08-27T03:25:17.001Z,94.79
2022-08-27T03:28:06.486Z,98.86
2022-08-27T03:31:26.934Z,100.00
2022-08-27T03:34:15.087Z,100.00
2022-08-27T03:37:07.950Z,100.00
2022-08-27T03:39:55.867Z,100.00
2022-08-27T03:42:44.119Z,100.00
2022-08-27T03:45:32.008Z,100.00
2022-08-27T03:48:40.019Z,100.00
2022-08-27T03:51:27.872Z,100.00
2022-08-27T03:54:15.928Z,100.00
2022-08-27T03:57:04.850Z,100.00
2022-08-27T03:59:54.342Z,100.00
2022-08-27T04:02:44.120Z,100.00
2022-08-27T04:05:33.531Z,100.00
2022-08-27T04:08:23.001Z,100.00
2022-08-27T04:11:11.720Z,100.00
2022-08-27T04:14:00.579Z,100.00
2022-08-27T04:16:48.749Z,100.00
2022-08-27T04:19:40.572Z,100.00
2022-08-27T04:22:28.625Z,100.00
2022-08-27T04:25:16.685Z,100.00
2022-08-27T04:28:04.685Z,100.00
2022-08-27T04:30:52.693Z,100.00
2022-08-27T04:33:41.212Z,100.00
2022-08-27T04:36:29.128Z,100.00
2022-08-27T04:39:17.593Z,100.00
2022-08-27T04:42:05.946Z,100.00
2022-08-27T04:44:53.884Z,100.00
2022-08-27T04:47:41.803Z,100.00
2022-08-27T04:50:29.720Z,100.00
2022-08-27T04:53:18.104Z,100.00
2022-08-27T04:56:06.200Z,100.00
2022-08-27T04:59:05.392Z,100.00
2022-08-27T05:01:53.452Z,100.00
2022-08-27T05:04:42.964Z,100.00
2022-08-27T05:07:30.933Z,100.00
2022-08-27T05:10:18.918Z,100.00
2022-08-27T05:13:07.259Z,100.00
2022-08-27T05:16:01.712Z,100.00
2022-08-27T05:18:51.784Z,100.00
2022-08-27T05:21:45.418Z,100.00
2022-08-27T05:24:33.520Z,100.00
2022-08-27T05:27:21.521Z,100.00
2022-08-27T05:30:09.966Z,100.00
2022-08-27T05:32:57.890Z,100.00
2022-08-27T05:35:50.468Z,100.00
2022-08-27T05:38:38.556Z,100.00
2022-08-27T05:41:34.296Z,100.00
2022-08-27T05:44:41.089Z,100.00
2022-08-27T05:47:29.430Z,100.00
2022-08-27T05:50:20.702Z,100.00
2022-08-27T05:53:13.083Z,100.00
2022-08-27T05:56:00.964Z,100.00
2022-08-27T05:59:09.957Z,100.00
2022-08-27T06:01:58.688Z,100.00
2022-08-27T06:04:47.169Z,100.00
2022-08-27T06:07:35.057Z,100.00
2022-08-27T06:10:22.981Z,100.00
2022-08-27T06:13:10.865Z,100.00
2022-08-27T06:16:08.882Z,100.00
2022-08-27T06:18:57.417Z,100.00
2022-08-27T06:21:45.553Z,100.00
2022-08-27T06:24:33.748Z,100.00
2022-08-27T06:27:21.648Z,100.00
2022-08-27T06:30:12.706Z,100.00
2022-08-27T06:33:02.643Z,100.00
2022-08-27T06:35:50.644Z,99.06
2022-08-27T06:38:39.359Z,98.41
2022-08-27T06:41:29.022Z,99.05
2022-08-27T06:44:17.632Z,97.84
2022-08-27T06:47:05.533Z,97.81
2022-08-27T06:49:53.482Z,98.38
2022-08-27T06:52:41.381Z,99.22
2022-08-27T06:55:29.249Z,100.00
2022-08-27T06:58:19.637Z,99.20
2022-08-27T07:01:24.628Z,99.14
2022-08-27T07:04:18.765Z,99.69
2022-08-27T07:07:08.067Z,99.77
2022-08-27T07:09:56.867Z,99.26
2022-08-27T07:12:44.858Z,99.34
2022-08-27T07:15:33.376Z,99.34
2022-08-27T07:18:27.146Z,98.25
2022-08-27T07:21:16.209Z,98.29
2022-08-27T07:24:06.601Z,97.69
2022-08-27T07:26:54.652Z,96.80
2022-08-27T07:29:42.909Z,95.59
2022-08-27T07:32:31.901Z,93.08
2022-08-27T07:35:20.174Z,90.97
2022-08-27T07:38:12.510Z,88.98
2022-08-27T07:41:00.753Z,86.52
2022-08-27T07:44:10.090Z,84.56
2022-08-27T07:47:00.866Z,82.71
2022-08-27T07:49:50.222Z,83.08
2022-08-27T07:52:39.721Z,79.66
2022-08-27T07:55:27.790Z,80.47
2022-08-27T07:58:18.783Z,80.93
2022-08-27T08:01:08.728Z,78.92
2022-08-27T08:04:00.207Z,75.59
2022-08-27T08:06:53.847Z,75.54
2022-08-27T08:09:45.378Z,75.10
2022-08-27T08:12:38.928Z,75.93
2022-08-27T08:15:29.689Z,75.66
2022-08-27T08:18:19.456Z,73.65
2022-08-27T08:21:14.227Z,73.73
2022-08-27T08:24:02.582Z,73.06
2022-08-27T08:26:53.872Z,72.22
2022-08-27T08:29:45.698Z,72.62
2022-08-27T08:32:36.407Z,68.59
2022-08-27T08:35:27.171Z,65.67
2022-08-27T08:38:29.182Z,68.81
2022-08-27T08:41:49.933Z,66.20
2022-08-27T08:44:49.761Z,63.74
2022-08-27T08:48:06.811Z,62.01
2022-08-27T08:51:17.669Z,57.67
2022-08-27T08:54:19.999Z,57.18
2022-08-27T08:57:21.793Z,56.46
2022-08-27T09:00:17.602Z,57.02
2022-08-27T09:03:13.045Z,59.24
2022-08-27T09:06:29.050Z,61.94
2022-08-27T09:09:54.633Z,61.17
2022-08-27T09:12:44.330Z,63.38
2022-08-27T09:15:36.773Z,65.48
2022-08-27T09:18:28.670Z,66.59
2022-08-27T09:21:33.353Z,68.16
2022-08-27T09:25:03.702Z,68.90
2022-08-27T09:27:57.571Z,68.17
2022-08-27T09:30:48.171Z,68.02
2022-08-27T09:33:53.631Z,68.68
2022-08-27T09:37:02.525Z,69.23
2022-08-27T09:40:13.368Z,68.67
2022-08-27T09:43:28.495Z,68.03
2022-08-27T09:46:27.095Z,68.71
2022-08-27T09:49:19.913Z,69.39
2022-08-27T09:52:32.719Z,69.99
2022-08-27T09:55:46.687Z,70.23
2022-08-27T09:59:00.581Z,69.66
2022-08-27T10:02:25.474Z,70.12
2022-08-27T10:05:23.212Z,69.14
2022-08-27T10:08:49.320Z,69.93
2022-08-27T10:12:03.967Z,70.45
2022-08-27T10:14:58.016Z,69.09
2022-08-27T10:18:03.812Z,69.30
2022-08-27T10:21:28.519Z,68.22
2022-08-27T10:24:46.733Z,67.13
2022-08-27T10:27:55.545Z,66.12
2022-08-27T10:31:19.380Z,65.71
2022-08-27T10:34:33.175Z,65.75
2022-08-27T10:37:59.406Z,64.92
2022-08-27T10:41:17.213Z,63.91
2022-08-27T10:44:49.560Z,62.59
2022-08-27T10:48:35.713Z,63.71
2022-08-27T10:52:05.311Z,64.01
2022-08-27T10:55:01.141Z,64.47
2022-08-27T10:58:25.505Z,63.13
2022-08-27T11:02:13.776Z,63.88
2022-08-27T11:05:21.409Z,64.50
2022-08-27T11:08:50.004Z,63.72
2022-08-27T11:12:13.478Z,62.64
2022-08-27T11:15:12.724Z,62.03
2022-08-27T11:18:41.402Z,64.72
2022-08-27T11:21:40.219Z,66.00
2022-08-27T11:25:21.650Z,66.49
2022-08-27T11:28:16.343Z,65.18
2022-08-27T11:31:45.582Z,66.20
2022-08-27T11:34:54.177Z,64.87
2022-08-27T11:38:37.273Z,65.64
2022-08-27T11:42:05.769Z,66.28
2022-08-27T11:45:28.631Z,66.10
2022-08-27T11:48:24.152Z,66.18
2022-08-27T11:51:38.213Z,65.96
2022-08-27T11:54:44.916Z,67.37
2022-08-27T11:57:37.715Z,66.94
2022-08-27T12:00:34.313Z,67.65
2022-08-27T12:03:37.031Z,67.22
2022-08-27T12:06:27.281Z,66.72
2022-08-27T12:09:22.977Z,66.26
2022-08-27T12:12:57.802Z,64.66
2022-08-27T12:16:37.827Z,64.43
2022-08-27T12:19:47.499Z,64.24
2022-08-27T12:23:35.315Z,63.30
2022-08-27T12:26:37.787Z,61.65
2022-08-27T12:29:52.297Z,60.70
2022-08-27T12:32:47.455Z,61.30
2022-08-27T12:35:51.931Z,61.78
2022-08-27T12:38:54.546Z,60.73
2022-08-27T12:41:50.997Z,61.21
2022-08-27T12:44:42.819Z,61.17
2022-08-27T12:47:42.640Z,60.98
2022-08-27T12:50:41.413Z,61.65
2022-08-27T12:54:09.945Z,60.95
2022-08-27T12:57:21.102Z,60.53
2022-08-27T13:00:26.601Z,60.71
2022-08-27T13:03:38.777Z,60.37
2022-08-27T13:06:45.004Z,60.26
2022-08-27T13:09:40.457Z,60.51
2022-08-27T13:12:31.117Z,59.78
2022-08-27T13:15:22.889Z,57.69
2022-08-27T13:18:13.428Z,57.37
2022-08-27T13:21:18.301Z,57.58
2022-08-27T13:24:10.916Z,56.34
2022-08-27T13:27:06.352Z,56.18
2022-08-27T13:30:10.763Z,55.79
2022-08-27T13:33:15.315Z,55.89
2022-08-27T13:36:04.156Z,57.12
2022-08-27T13:38:56.530Z,57.09
2022-08-27T13:41:50.122Z,55.76
2022-08-27T13:44:44.595Z,57.75
2022-08-27T13:47:48.849Z,58.26
2022-08-27T13:50:49.899Z,58.64
2022-08-27T13:54:08.497Z,57.44
2022-08-27T13:57:08.767Z,57.08
2022-08-27T14:00:16.239Z,57.14
2022-08-27T14:03:26.206Z,58.53
2022-08-27T14:06:35.765Z,59.42
2022-08-27T14:09:30.743Z,59.37
2022-08-27T14:12:39.250Z,59.66
2022-08-27T14:15:38.960Z,60.19
2022-08-27T14:18:58.387Z,60.11
2022-08-27T14:21:50.065Z,60.50
2022-08-27T14:24:41.990Z,60.73
2022-08-27T14:27:32.447Z,62.52
2022-08-27T14:30:29.603Z,64.46
2022-08-27T14:33:19.828Z,65.26
2022-08-27T14:36:12.703Z,64.54
2022-08-27T14:39:02.150Z,64.85
2022-08-27T14:41:53.826Z,61.80
2022-08-27T14:44:45.695Z,60.24
2022-08-27T14:47:41.722Z,59.90
2022-08-27T14:50:33.359Z,60.04
2022-08-27T14:53:24.205Z,59.10
2022-08-27T14:56:16.068Z,58.83
2022-08-27T14:59:07.132Z,58.40
2022-08-27T15:01:58.541Z,58.55
2022-08-27T15:04:49.649Z,58.28
2022-08-27T15:07:41.689Z,56.39
2022-08-27T15:10:36.704Z,57.37
2022-08-27T15:13:27.472Z,57.27
2022-08-27T15:16:35.066Z,56.93
2022-08-27T15:19:27.150Z,56.71
2022-08-27T15:22:23.079Z,57.91
2022-08-27T15:25:15.609Z,57.59
2022-08-27T15:28:06.924Z,57.27
2022-08-27T15:30:58.590Z,58.13
2022-08-27T15:33:48.140Z,58.94
2022-08-27T15:36:37.296Z,60.77
2022-08-27T15:39:28.498Z,60.71
2022-08-27T15:42:21.569Z,61.02
2022-08-27T15:45:13.280Z,61.08
2022-08-27T15:48:03.972Z,62.38
2022-08-27T15:50:54.713Z,62.81
2022-08-27T15:53:47.086Z,62.47
2022-08-27T15:56:40.067Z,62.74
2022-08-27T15:59:31.137Z,63.10
2022-08-27T16:02:26.465Z,62.98
2022-08-27T16:05:20.563Z,63.91
2022-08-27T16:08:10.475Z,64.06
2022-08-27T16:10:59.635Z,64.04
2022-08-27T16:13:52.246Z,64.15
2022-08-27T16:16:46.637Z,63.82
2022-08-27T16:19:37.860Z,63.82
2022-08-27T16:22:28.873Z,63.26
2022-08-27T16:25:20.992Z,63.77
2022-08-27T16:28:12.385Z,63.63
2022-08-27T16:31:05.600Z,64.19
2022-08-27T16:34:01.477Z,64.08
2022-08-27T16:36:51.902Z,64.17
2022-08-27T16:39:42.149Z,64.24
2022-08-27T16:42:34.124Z,64.46
2022-08-27T16:45:27.404Z,64.36
2022-08-27T16:48:35.641Z,64.07
2022-08-27T16:51:32.611Z,64.29
2022-08-27T16:54:23.717Z,64.45
2022-08-27T16:57:12.375Z,64.04
2022-08-27T17:00:04.174Z,64.11
2022-08-27T17:02:55.986Z,64.50
2022-08-27T17:05:46.665Z,65.78
2022-08-27T17:08:47.740Z,66.74
2022-08-27T17:11:43.419Z,67.13
2022-08-27T17:14:38.428Z,67.80
2022-08-27T17:17:30.110Z,68.13
2022-08-27T17:20:21.955Z,67.70
2022-08-27T17:23:34.746Z,68.27
2022-08-27T17:26:23.820Z,69.62
2022-08-27T17:29:12.040Z,70.70
2022-08-27T17:32:01.042Z,70.69
2022-08-27T17:34:49.109Z,70.91
2022-08-27T17:37:37.966Z,71.49
2022-08-27T17:40:26.012Z,71.54
2022-08-27T17:43:14.101Z,71.54
2022-08-27T17:46:10.258Z,71.44
2022-08-27T17:48:59.569Z,71.64
2022-08-27T17:51:50.341Z,71.95
2022-08-27T17:54:44.645Z,72.30
2022-08-27T17:57:40.382Z,72.24
2022-08-27T18:00:29.361Z,72.82
2022-08-27T18:03:20.049Z,73.53
2022-08-27T18:06:08.846Z,74.24
2022-08-27T18:08:56.901Z,74.36
2022-08-27T18:11:46.451Z,75.14
2022-08-27T18:14:35.846Z,74.92
2022-08-27T18:17:25.192Z,74.64
2022-08-27T18:20:14.973Z,74.92
2022-08-27T18:23:04.474Z,75.18
2022-08-27T18:25:52.699Z,75.42
2022-08-27T18:28:41.541Z,75.50
2022-08-27T18:31:32.275Z,76.05
2022-08-27T18:34:21.051Z,76.36
2022-08-27T18:37:09.193Z,76.45
2022-08-27T18:39:57.139Z,76.54
2022-08-27T18:42:45.568Z,76.37
2022-08-27T18:45:36.035Z,76.81
2022-08-27T18:48:24.008Z,77.28
2022-08-27T18:51:15.265Z,77.00
2022-08-27T18:54:04.956Z,77.28
2022-08-27T18:56:53.278Z,77.00
2022-08-27T18:59:41.247Z,77.37
2022-08-27T19:02:29.559Z,77.86
2022-08-27T19:05:21.457Z,78.19
2022-08-27T19:08:09.331Z,78.18
2022-08-27T19:10:57.238Z,78.70
2022-08-27T19:13:45.103Z,78.59
2022-08-27T19:16:42.273Z,78.66
2022-08-27T19:19:31.419Z,78.95
2022-08-27T19:22:19.581Z,79.09
2022-08-27T19:25:08.222Z,79.13
2022-08-27T19:27:56.371Z,79.61
2022-08-27T19:30:45.667Z,79.66
2022-08-27T19:33:34.226Z,79.85
2022-08-27T19:36:25.972Z,79.98
2022-08-27T19:39:19.175Z,79.99
2022-08-27T19:42:07.357Z,80.62
2022-08-27T19:44:55.268Z,81.07
2022-08-27T19:47:44.648Z,81.50
2022-08-27T19:50:32.588Z,81.62
2022-08-27T19:53:20.688Z,81.21
2022-08-27T19:56:10.057Z,81.07
2022-08-27T19:59:08.754Z,81.42
2022-08-27T20:02:04.318Z,81.65
2022-08-27T20:05:16.340Z,81.75
2022-08-27T20:08:00.083Z,81.52
2022-08-27T20:10:48.495Z,81.24
2022-08-27T20:13:36.449Z,81.55
2022-08-27T20:16:28.313Z,81.81
2022-08-27T20:19:18.728Z,81.71
2022-08-27T20:22:06.833Z,81.66
2022-08-27T20:24:54.701Z,81.91
2022-08-27T20:27:43.116Z,81.94
2022-08-27T20:30:31.233Z,82.02
2022-08-27T20:33:19.150Z,82.25
2022-08-27T20:36:08.601Z,82.06
2022-08-27T20:38:56.510Z,82.08
2022-08-27T20:41:44.575Z,81.88
2022-08-27T20:44:35.187Z,81.86
2022-08-27T20:47:25.937Z,81.69
2022-08-27T20:50:14.694Z,82.08
2022-08-27T20:53:02.717Z,82.59
2022-08-27T20:55:50.621Z,82.95
2022-08-27T20:58:57.416Z,82.37
2022-08-27T21:01:45.345Z,82.83
2022-08-27T21:04:43.336Z,82.98
2022-08-27T21:07:31.187Z,83.70
2022-08-27T21:10:20.838Z,83.82
2022-08-27T21:13:12.240Z,84.16
2022-08-27T21:16:00.445Z,84.26
2022-08-27T21:18:48.358Z,85.09
2022-08-27T21:21:36.199Z,85.69
2022-08-27T21:24:24.340Z,85.83
2022-08-27T21:27:12.209Z,85.70
2022-08-27T21:30:00.333Z,86.27
2022-08-27T21:32:48.807Z,86.96
2022-08-27T21:35:37.017Z,86.92
2022-08-27T21:38:25.174Z,87.03
2022-08-27T21:41:13.117Z,87.67
2022-08-27T21:44:01.033Z,87.58
2022-08-27T21:46:49.073Z,87.71
2022-08-27T21:49:37.290Z,87.43
2022-08-27T21:52:25.224Z,87.52
2022-08-27T21:55:13.416Z,87.84
2022-08-27T21:58:01.276Z,88.08
2022-08-27T22:00:50.479Z,88.75
2022-08-27T22:03:38.405Z,88.75
2022-08-27T22:06:26.226Z,89.49
2022-08-27T22:09:14.344Z,90.16
2022-08-27T22:12:04.725Z,90.36
2022-08-27T22:14:52.599Z,90.23
2022-08-27T22:17:40.505Z,90.44
2022-08-27T22:20:29.053Z,90.70
2022-08-27T22:23:17.032Z,90.44
2022-08-27T22:26:05.760Z,90.53
2022-08-27T22:28:53.632Z,90.70
2022-08-27T22:31:44.131Z,91.73
2022-08-27T22:34:31.988Z,92.17
2022-08-27T22:37:19.891Z,92.47
2022-08-27T22:40:11.068Z,93.18
2022-08-27T22:43:07.667Z,93.47
2022-08-27T22:45:55.574Z,93.97
2022-08-27T22:48:43.388Z,93.66
2022-08-27T22:51:32.356Z,94.29
2022-08-27T22:54:20.289Z,94.26
2022-08-27T22:57:10.493Z,95.05
2022-08-27T22:59:58.769Z,95.72
2022-08-27T23:02:46.907Z,96.26
2022-08-27T23:05:40.493Z,97.30
2022-08-27T23:08:31.831Z,97.66
2022-08-27T23:11:19.903Z,97.77
2022-08-27T23:14:07.677Z,97.88
2022-08-27T23:16:56.201Z,97.76
2022-08-27T23:19:44.970Z,97.63
2022-08-27T23:22:33.062Z,97.72
2022-08-27T23:25:43.502Z,98.27
2022-08-27T23:28:31.525Z,98.32
2022-08-27T23:31:19.956Z,98.43
2022-08-27T23:34:07.907Z,98.86
2022-08-27T23:36:56.172Z,98.19
2022-08-27T23:39:43.995Z,98.21
2022-08-27T23:42:36.493Z,98.31
2022-08-27T23:45:26.144Z,98.27
2022-08-27T23:48:14.185Z,97.96
2022-08-27T23:51:02.195Z,97.98
2022-08-27T23:53:50.014Z,98.21
2022-08-27T23:56:38.035Z,97.35
2022-08-27T23:59:29.967Z,96.98
